sensor_id;sensor_type;location;lat;lon;timestamp;pressure;altitude;pressure_sealevel;temperature;humidity
63554;BME280;49699;48.072;7.800;2023-06-14T00:01:43;98852.03;;;13.62;55.32
63554;BME280;49699;48.072;7.800;2023-06-14T00:04:11;98850.03;;;13.66;54.92
63554;BME280;49699;48.072;7.800;2023-06-14T00:06:38;98844.56;;;13.69;54.83
63554;BME280;49699;48.072;7.800;2023-06-14T00:09:03;98851.34;;;13.71;54.67
63554;BME280;49699;48.072;7.800;2023-06-14T00:11:31;98846.94;;;13.72;54.59
63554;BME280;49699;48.072;7.800;2023-06-14T00:13:56;98840.75;;;13.73;54.74
63554;BME280;49699;48.072;7.800;2023-06-14T00:16:22;98847.88;;;13.71;54.78
63554;BME280;49699;48.072;7.800;2023-06-14T00:18:48;98846.94;;;13.72;54.54
63554;BME280;49699;48.072;7.800;2023-06-14T00:21:13;98841.69;;;13.72;54.60
63554;BME280;49699;48.072;7.800;2023-06-14T00:23:39;98845.28;;;13.71;54.97
63554;BME280;49699;48.072;7.800;2023-06-14T00:26:05;98842.06;;;13.67;54.85
63554;BME280;49699;48.072;7.800;2023-06-14T00:28:30;98839.69;;;13.64;55.03
63554;BME280;49699;48.072;7.800;2023-06-14T00:30:56;98848.75;;;13.60;55.07
63554;BME280;49699;48.072;7.800;2023-06-14T00:33:21;98847.44;;;13.54;55.24
63554;BME280;49699;48.072;7.800;2023-06-14T00:35:46;98845.41;;;13.47;55.58
63554;BME280;49699;48.072;7.800;2023-06-14T00:38:12;98838.31;;;13.38;55.87
63554;BME280;49699;48.072;7.800;2023-06-14T00:40:39;98843.28;;;13.30;56.24
63554;BME280;49699;48.072;7.800;2023-06-14T00:43:05;98845.69;;;13.22;56.47
63554;BME280;49699;48.072;7.800;2023-06-14T00:45:31;98849.09;;;13.11;57.09
63554;BME280;49699;48.072;7.800;2023-06-14T00:48:01;98848.59;;;12.95;57.62
63554;BME280;49699;48.072;7.800;2023-06-14T00:50:28;98848.22;;;12.77;58.30
63554;BME280;49699;48.072;7.800;2023-06-14T00:52:56;98841.56;;;12.62;58.81
63554;BME280;49699;48.072;7.800;2023-06-14T00:55:23;98850.31;;;12.49;58.79
63554;BME280;49699;48.072;7.800;2023-06-14T00:57:49;98846.47;;;12.42;59.23
63554;BME280;49699;48.072;7.800;2023-06-14T01:00:14;98844.94;;;12.40;59.60
63554;BME280;49699;48.072;7.800;2023-06-14T01:02:40;98845.41;;;12.34;59.80
63554;BME280;49699;48.072;7.800;2023-06-14T01:05:08;98850.63;;;12.34;59.83
63554;BME280;49699;48.072;7.800;2023-06-14T01:13:10;98855.84;;;12.34;60.33
63554;BME280;49699;48.072;7.800;2023-06-14T01:15:38;98851.56;;;12.33;59.99
63554;BME280;49699;48.072;7.800;2023-06-14T01:18:05;98865.44;;;12.33;60.37
63554;BME280;49699;48.072;7.800;2023-06-14T01:20:32;98858.44;;;12.34;60.43
63554;BME280;49699;48.072;7.800;2023-06-14T01:23:03;98855.84;;;12.34;60.49
63554;BME280;49699;48.072;7.800;2023-06-14T01:25:29;98853.34;;;12.32;60.67
63554;BME280;49699;48.072;7.800;2023-06-14T01:28:05;98853.44;;;12.31;60.87
63554;BME280;49699;48.072;7.800;2023-06-14T01:30:41;98858.78;;;12.29;60.95
63554;BME280;49699;48.072;7.800;2023-06-14T01:33:21;98856.38;;;12.26;61.09
63554;BME280;49699;48.072;7.800;2023-06-14T01:35:49;98845.56;;;12.20;61.36
63554;BME280;49699;48.072;7.800;2023-06-14T01:38:20;98859.91;;;12.14;61.23
63554;BME280;49699;48.072;7.800;2023-06-14T01:40:47;98853.47;;;12.07;61.37
63554;BME280;49699;48.072;7.800;2023-06-14T01:43:15;98854.50;;;12.04;61.61
63554;BME280;49699;48.072;7.800;2023-06-14T01:45:42;98848.47;;;12.04;61.84
63554;BME280;49699;48.072;7.800;2023-06-14T01:48:08;98852.38;;;11.98;61.86
63554;BME280;49699;48.072;7.800;2023-06-14T01:50:34;98862.63;;;11.89;62.39
63554;BME280;49699;48.072;7.800;2023-06-14T01:52:59;98847.66;;;11.79;62.88
63554;BME280;49699;48.072;7.800;2023-06-14T01:55:25;98848.47;;;11.67;62.46
63554;BME280;49699;48.072;7.800;2023-06-14T01:57:51;98860.19;;;11.62;62.72
63554;BME280;49699;48.072;7.800;2023-06-14T02:00:18;98853.53;;;11.58;63.01
63554;BME280;49699;48.072;7.800;2023-06-14T02:02:44;98847.69;;;11.54;63.16
63554;BME280;49699;48.072;7.800;2023-06-14T02:05:09;98843.41;;;11.53;63.03
63554;BME280;49699;48.072;7.800;2023-06-14T02:07:35;98850.41;;;11.53;63.07
63554;BME280;49699;48.072;7.800;2023-06-14T02:10:01;98859.78;;;11.55;63.04
63554;BME280;49699;48.072;7.800;2023-06-14T02:12:26;98845.59;;;11.59;62.84
63554;BME280;49699;48.072;7.800;2023-06-14T02:14:52;98847.06;;;11.63;63.06
63554;BME280;49699;48.072;7.800;2023-06-14T02:17:17;98859.72;;;11.68;62.59
63554;BME280;49699;48.072;7.800;2023-06-14T02:19:43;98856.81;;;11.72;62.90
63554;BME280;49699;48.072;7.800;2023-06-14T02:22:08;98862.66;;;11.76;62.34
63554;BME280;49699;48.072;7.800;2023-06-14T02:24:34;98859.84;;;11.79;62.41
63554;BME280;49699;48.072;7.800;2023-06-14T02:27:01;98854.63;;;11.79;62.77
63554;BME280;49699;48.072;7.800;2023-06-14T02:29:26;98853.69;;;11.80;62.80
63554;BME280;49699;48.072;7.800;2023-06-14T02:31:52;98850.16;;;11.81;62.53
63554;BME280;49699;48.072;7.800;2023-06-14T02:34:20;98855.47;;;11.79;62.69
63554;BME280;49699;48.072;7.800;2023-06-14T02:36:47;98852.03;;;11.79;62.53
63554;BME280;49699;48.072;7.800;2023-06-14T02:39:13;98848.59;;;11.78;62.56
63554;BME280;49699;48.072;7.800;2023-06-14T02:41:39;98859.13;;;11.77;62.59
63554;BME280;49699;48.072;7.800;2023-06-14T02:44:05;98857.53;;;11.74;62.61
63554;BME280;49699;48.072;7.800;2023-06-14T02:46:31;98864.94;;;11.68;62.78
63554;BME280;49699;48.072;7.800;2023-06-14T02:48:56;98859.16;;;11.64;63.09
63554;BME280;49699;48.072;7.800;2023-06-14T02:51:22;98855.19;;;11.59;63.14
63554;BME280;49699;48.072;7.800;2023-06-14T02:53:47;98860.50;;;11.57;63.48
63554;BME280;49699;48.072;7.800;2023-06-14T02:56:13;98853.84;;;11.53;63.44
63554;BME280;49699;48.072;7.800;2023-06-14T02:58:39;98859.72;;;11.44;63.78
63554;BME280;49699;48.072;7.800;2023-06-14T03:01:06;98865.66;;;11.33;64.16
63554;BME280;49699;48.072;7.800;2023-06-14T03:03:33;98875.16;;;11.22;64.30
63554;BME280;49699;48.072;7.800;2023-06-14T03:05:58;98871.84;;;11.07;64.65
63554;BME280;49699;48.072;7.800;2023-06-14T03:08:31;98876.19;;;10.94;64.78
63554;BME280;49699;48.072;7.800;2023-06-14T03:11:06;98882.78;;;10.87;65.64
63554;BME280;49699;48.072;7.800;2023-06-14T03:13:32;98884.13;;;10.79;66.01
63554;BME280;49699;48.072;7.800;2023-06-14T03:15:58;98893.19;;;10.74;65.94
63554;BME280;49699;48.072;7.800;2023-06-14T03:18:24;98887.44;;;10.69;65.67
63554;BME280;49699;48.072;7.800;2023-06-14T03:20:50;98887.00;;;10.62;65.64
63554;BME280;49699;48.072;7.800;2023-06-14T03:23:16;98898.44;;;10.60;65.86
63554;BME280;49699;48.072;7.800;2023-06-14T03:25:43;98905.66;;;10.56;65.81
63554;BME280;49699;48.072;7.800;2023-06-14T03:28:10;98908.34;;;10.55;66.44
63554;BME280;49699;48.072;7.800;2023-06-14T03:30:36;98907.63;;;10.53;66.04
63554;BME280;49699;48.072;7.800;2023-06-14T03:33:01;98907.16;;;10.46;66.35
63554;BME280;49699;48.072;7.800;2023-06-14T03:35:28;98899.97;;;10.37;66.42
63554;BME280;49699;48.072;7.800;2023-06-14T03:37:54;98905.47;;;10.32;66.72
63554;BME280;49699;48.072;7.800;2023-06-14T03:40:20;98905.88;;;10.26;66.64
63554;BME280;49699;48.072;7.800;2023-06-14T03:42:49;98904.09;;;10.27;66.52
63554;BME280;49699;48.072;7.800;2023-06-14T03:45:15;98909.31;;;10.27;67.06
63554;BME280;49699;48.072;7.800;2023-06-14T03:47:40;98911.81;;;10.28;66.85
63554;BME280;49699;48.072;7.800;2023-06-14T03:50:06;98911.72;;;10.30;66.74
63554;BME280;49699;48.072;7.800;2023-06-14T03:52:33;98910.03;;;10.29;66.67
63554;BME280;49699;48.072;7.800;2023-06-14T03:54:58;98914.50;;;10.27;66.64
63554;BME280;49699;48.072;7.800;2023-06-14T03:57:26;98913.75;;;10.25;66.84
63554;BME280;49699;48.072;7.800;2023-06-14T03:59:53;98921.66;;;10.23;66.93
63554;BME280;49699;48.072;7.800;2023-06-14T04:02:19;98925.19;;;10.22;66.49
63554;BME280;49699;48.072;7.800;2023-06-14T04:04:45;98922.81;;;10.19;66.76
63554;BME280;49699;48.072;7.800;2023-06-14T04:07:11;98929.78;;;10.19;67.06
63554;BME280;49699;48.072;7.800;2023-06-14T04:09:37;98930.69;;;10.18;67.21
63554;BME280;49699;48.072;7.800;2023-06-14T04:12:04;98925.41;;;10.19;66.69
63554;BME280;49699;48.072;7.800;2023-06-14T04:14:31;98935.50;;;10.24;66.71
63554;BME280;49699;48.072;7.800;2023-06-14T04:16:58;98925.56;;;10.30;66.74
63554;BME280;49699;48.072;7.800;2023-06-14T04:19:24;98943.06;;;10.41;66.36
63554;BME280;49699;48.072;7.800;2023-06-14T04:21:49;98945.06;;;10.50;66.17
63554;BME280;49699;48.072;7.800;2023-06-14T04:24:16;98948.81;;;10.59;65.99
63554;BME280;49699;48.072;7.800;2023-06-14T04:26:45;98949.06;;;10.68;66.05
63554;BME280;49699;48.072;7.800;2023-06-14T04:29:14;98943.47;;;10.74;65.81
63554;BME280;49699;48.072;7.800;2023-06-14T04:31:45;98950.31;;;10.75;65.78
63554;BME280;49699;48.072;7.800;2023-06-14T04:34:12;98953.16;;;10.72;66.16
63554;BME280;49699;48.072;7.800;2023-06-14T04:36:44;98960.31;;;10.69;66.13
63554;BME280;49699;48.072;7.800;2023-06-14T04:39:19;98964.69;;;10.68;66.27
63554;BME280;49699;48.072;7.800;2023-06-14T04:41:45;98968.03;;;10.70;66.28
63554;BME280;49699;48.072;7.800;2023-06-14T04:44:12;98966.69;;;10.77;65.96
63554;BME280;49699;48.072;7.800;2023-06-14T04:46:41;98969.81;;;10.83;66.33
63554;BME280;49699;48.072;7.800;2023-06-14T04:49:19;98976.19;;;10.91;66.10
63554;BME280;49699;48.072;7.800;2023-06-14T04:51:45;98974.00;;;10.98;66.22
63554;BME280;49699;48.072;7.800;2023-06-14T04:54:12;98973.31;;;11.08;66.11
63554;BME280;49699;48.072;7.800;2023-06-14T04:56:41;98971.84;;;11.17;65.94
63554;BME280;49699;48.072;7.800;2023-06-14T04:59:11;98963.44;;;11.26;66.02
63554;BME280;49699;48.072;7.800;2023-06-14T05:01:38;98978.00;;;11.41;65.71
63554;BME280;49699;48.072;7.800;2023-06-14T05:04:03;98978.81;;;11.55;65.18
63554;BME280;49699;48.072;7.800;2023-06-14T05:06:30;98978.91;;;11.66;65.07
63554;BME280;49699;48.072;7.800;2023-06-14T05:08:56;98981.66;;;11.77;64.64
63554;BME280;49699;48.072;7.800;2023-06-14T05:11:22;98978.91;;;11.91;64.47
63554;BME280;49699;48.072;7.800;2023-06-14T05:13:52;98975.22;;;12.06;63.71
63554;BME280;49699;48.072;7.800;2023-06-14T05:16:17;98986.00;;;12.26;63.26
63554;BME280;49699;48.072;7.800;2023-06-14T05:18:45;98985.84;;;12.40;62.90
63554;BME280;49699;48.072;7.800;2023-06-14T05:21:11;98987.50;;;12.54;62.54
63554;BME280;49699;48.072;7.800;2023-06-14T05:23:36;98986.59;;;12.66;62.30
63554;BME280;49699;48.072;7.800;2023-06-14T05:26:02;98983.06;;;12.78;61.95
63554;BME280;49699;48.072;7.800;2023-06-14T05:28:29;98985.59;;;12.91;61.52
63554;BME280;49699;48.072;7.800;2023-06-14T05:30:56;98986.25;;;13.05;61.58
63554;BME280;49699;48.072;7.800;2023-06-14T05:33:21;98988.81;;;13.18;61.28
63554;BME280;49699;48.072;7.800;2023-06-14T05:35:46;98993.09;;;13.30;60.92
63554;BME280;49699;48.072;7.800;2023-06-14T05:38:12;98993.13;;;13.41;60.74
63554;BME280;49699;48.072;7.800;2023-06-14T05:40:37;98995.75;;;13.52;60.66
63554;BME280;49699;48.072;7.800;2023-06-14T05:43:03;99005.38;;;13.63;60.60
63554;BME280;49699;48.072;7.800;2023-06-14T05:45:28;98998.50;;;13.73;60.55
63554;BME280;49699;48.072;7.800;2023-06-14T05:47:53;98999.44;;;13.83;60.27
63554;BME280;49699;48.072;7.800;2023-06-14T05:50:20;99002.91;;;13.95;60.26
63554;BME280;49699;48.072;7.800;2023-06-14T05:52:45;99008.22;;;14.05;60.13
63554;BME280;49699;48.072;7.800;2023-06-14T05:55:11;99011.81;;;14.15;59.93
63554;BME280;49699;48.072;7.800;2023-06-14T05:57:40;99007.59;;;14.23;59.81
63554;BME280;49699;48.072;7.800;2023-06-14T06:00:08;98997.09;;;14.35;59.59
63554;BME280;49699;48.072;7.800;2023-06-14T06:02:37;99002.47;;;14.44;59.51
63554;BME280;49699;48.072;7.800;2023-06-14T06:05:03;99011.25;;;14.54;59.61
63554;BME280;49699;48.072;7.800;2023-06-14T06:07:28;99008.63;;;14.66;59.29
63554;BME280;49699;48.072;7.800;2023-06-14T06:09:53;99006.66;;;14.79;58.82
63554;BME280;49699;48.072;7.800;2023-06-14T06:12:19;99008.97;;;14.93;58.46
63554;BME280;49699;48.072;7.800;2023-06-14T06:14:44;99012.63;;;15.02;58.08
63554;BME280;49699;48.072;7.800;2023-06-14T06:17:10;99010.91;;;15.12;57.66
63554;BME280;49699;48.072;7.800;2023-06-14T06:19:35;99003.97;;;15.22;57.27
63554;BME280;49699;48.072;7.800;2023-06-14T06:22:00;99004.13;;;15.30;56.81
63554;BME280;49699;48.072;7.800;2023-06-14T06:24:26;99012.91;;;15.40;56.40
63554;BME280;49699;48.072;7.800;2023-06-14T06:26:51;99006.03;;;15.49;56.06
63554;BME280;49699;48.072;7.800;2023-06-14T06:29:16;99007.50;;;15.62;55.88
63554;BME280;49699;48.072;7.800;2023-06-14T06:31:42;99009.53;;;15.80;55.52
63554;BME280;49699;48.072;7.800;2023-06-14T06:34:07;99013.75;;;15.92;55.20
63554;BME280;49699;48.072;7.800;2023-06-14T06:36:32;99017.22;;;16.02;54.94
63554;BME280;49699;48.072;7.800;2023-06-14T06:38:58;99015.22;;;16.25;54.41
63554;BME280;49699;48.072;7.800;2023-06-14T06:41:23;99012.38;;;16.47;53.98
63554;BME280;49699;48.072;7.800;2023-06-14T06:43:49;99020.72;;;16.72;53.15
63554;BME280;49699;48.072;7.800;2023-06-14T06:46:16;99022.41;;;16.92;52.69
63554;BME280;49699;48.072;7.800;2023-06-14T06:48:43;99022.53;;;17.10;52.06
63554;BME280;49699;48.072;7.800;2023-06-14T06:51:08;99024.88;;;17.32;51.63
63554;BME280;49699;48.072;7.800;2023-06-14T06:53:34;99025.22;;;17.56;50.87
63554;BME280;49699;48.072;7.800;2023-06-14T06:55:59;99030.50;;;17.66;50.83
63554;BME280;49699;48.072;7.800;2023-06-14T06:58:25;99018.94;;;17.77;50.42
63554;BME280;49699;48.072;7.800;2023-06-14T07:00:50;99028.44;;;17.97;50.02
63554;BME280;49699;48.072;7.800;2023-06-14T07:03:16;99029.59;;;18.22;49.31
63554;BME280;49699;48.072;7.800;2023-06-14T07:05:41;99028.50;;;18.42;48.50
63554;BME280;49699;48.072;7.800;2023-06-14T07:08:07;99031.41;;;18.66;48.11
63554;BME280;49699;48.072;7.800;2023-06-14T07:10:33;99025.31;;;18.84;47.46
63554;BME280;49699;48.072;7.800;2023-06-14T07:12:58;99032.06;;;18.96;47.31
63554;BME280;49699;48.072;7.800;2023-06-14T07:15:23;99026.09;;;19.12;46.72
63554;BME280;49699;48.072;7.800;2023-06-14T07:17:49;99020.25;;;19.26;45.94
63554;BME280;49699;48.072;7.800;2023-06-14T07:20:16;99026.94;;;19.38;45.86
63554;BME280;49699;48.072;7.800;2023-06-14T07:22:42;99025.75;;;19.50;45.47
63554;BME280;49699;48.072;7.800;2023-06-14T07:25:09;99029.47;;;19.65;45.24
63554;BME280;49699;48.072;7.800;2023-06-14T07:27:37;99026.47;;;19.86;44.94
63554;BME280;49699;48.072;7.800;2023-06-14T07:30:03;99021.59;;;20.07;44.57
63554;BME280;49699;48.072;7.800;2023-06-14T07:32:28;99023.19;;;20.34;44.13
63554;BME280;49699;48.072;7.800;2023-06-14T07:34:54;99024.28;;;20.66;43.34
63554;BME280;49699;48.072;7.800;2023-06-14T07:37:19;99030.13;;;20.86;42.75
63554;BME280;49699;48.072;7.800;2023-06-14T07:39:45;99029.47;;;20.92;42.77
63554;BME280;49699;48.072;7.800;2023-06-14T07:42:10;99032.09;;;21.00;42.71
63554;BME280;49699;48.072;7.800;2023-06-14T07:44:36;99033.28;;;21.13;42.52
63554;BME280;49699;48.072;7.800;2023-06-14T07:47:01;99030.66;;;21.30;42.21
63554;BME280;49699;48.072;7.800;2023-06-14T07:49:27;99029.97;;;21.52;41.93
63554;BME280;49699;48.072;7.800;2023-06-14T07:51:52;99026.44;;;21.76;41.73
63554;BME280;49699;48.072;7.800;2023-06-14T07:54:19;99021.78;;;22.02;41.46
63554;BME280;49699;48.072;7.800;2023-06-14T07:56:44;99033.34;;;22.40;40.98
63554;BME280;49699;48.072;7.800;2023-06-14T07:59:10;99023.50;;;22.57;40.23
63554;BME280;49699;48.072;7.800;2023-06-14T08:01:35;99026.09;;;22.65;39.85
63554;BME280;49699;48.072;7.800;2023-06-14T08:04:01;99029.50;;;22.82;39.54
63554;BME280;49699;48.072;7.800;2023-06-14T08:06:26;99019.25;;;23.02;38.80
63554;BME280;49699;48.072;7.800;2023-06-14T08:08:52;99013.91;;;23.10;38.68
63554;BME280;49699;48.072;7.800;2023-06-14T08:11:17;99011.53;;;23.30;37.92
63554;BME280;49699;48.072;7.800;2023-06-14T08:13:42;99017.84;;;23.51;37.61
63554;BME280;49699;48.072;7.800;2023-06-14T08:16:08;99011.72;;;23.66;36.86
63554;BME280;49699;48.072;7.800;2023-06-14T08:18:33;99008.91;;;23.82;36.47
63554;BME280;49699;48.072;7.800;2023-06-14T08:20:59;99011.09;;;23.93;36.05
63554;BME280;49699;48.072;7.800;2023-06-14T08:23:24;99008.59;;;24.21;35.38
63554;BME280;49699;48.072;7.800;2023-06-14T08:25:50;99008.81;;;24.34;34.65
63554;BME280;49699;48.072;7.800;2023-06-14T08:28:15;99012.25;;;24.49;34.36
63554;BME280;49699;48.072;7.800;2023-06-14T08:30:42;99010.03;;;24.74;33.26
63554;BME280;49699;48.072;7.800;2023-06-14T08:33:08;99008.59;;;24.93;33.22
63554;BME280;49699;48.072;7.800;2023-06-14T08:35:33;99007.47;;;25.23;32.25
63554;BME280;49699;48.072;7.800;2023-06-14T08:38:02;99005.53;;;25.39;32.14
63554;BME280;49699;48.072;7.800;2023-06-14T08:40:29;99005.81;;;25.44;31.90
63554;BME280;49699;48.072;7.800;2023-06-14T08:42:55;98995.81;;;25.52;32.14
63554;BME280;49699;48.072;7.800;2023-06-14T08:45:21;98998.28;;;25.54;32.06
63554;BME280;49699;48.072;7.800;2023-06-14T08:47:48;98992.22;;;25.67;31.73
63554;BME280;49699;48.072;7.800;2023-06-14T08:50:21;98996.53;;;26.02;31.36
63554;BME280;49699;48.072;7.800;2023-06-14T08:52:51;99002.34;;;26.19;30.04
63554;BME280;49699;48.072;7.800;2023-06-14T08:55:18;98998.22;;;26.10;30.00
63554;BME280;49699;48.072;7.800;2023-06-14T08:57:46;98997.34;;;26.03;30.17
63554;BME280;49699;48.072;7.800;2023-06-14T09:00:13;98996.53;;;25.96;30.31
63554;BME280;49699;48.072;7.800;2023-06-14T09:02:39;99010.25;;;25.92;30.42
63554;BME280;49699;48.072;7.800;2023-06-14T09:05:12;99009.16;;;25.87;30.19
63554;BME280;49699;48.072;7.800;2023-06-14T09:07:41;99002.81;;;25.88;30.38
63554;BME280;49699;48.072;7.800;2023-06-14T09:10:15;99004.47;;;25.89;30.28
63554;BME280;49699;48.072;7.800;2023-06-14T09:12:40;98997.59;;;26.08;30.27
63554;BME280;49699;48.072;7.800;2023-06-14T09:15:06;99005.22;;;26.17;30.15
63554;BME280;49699;48.072;7.800;2023-06-14T09:17:37;99009.38;;;26.26;30.05
63554;BME280;49699;48.072;7.800;2023-06-14T09:20:05;98997.38;;;26.50;29.86
63554;BME280;49699;48.072;7.800;2023-06-14T09:22:32;99002.97;;;26.75;29.75
63554;BME280;49699;48.072;7.800;2023-06-14T09:24:57;99001.38;;;27.07;29.42
63554;BME280;49699;48.072;7.800;2023-06-14T09:27:25;99002.63;;;27.44;29.07
63554;BME280;49699;48.072;7.800;2023-06-14T09:29:51;98998.13;;;27.58;28.09
63554;BME280;49699;48.072;7.800;2023-06-14T09:32:16;98999.34;;;27.49;28.33
63554;BME280;49699;48.072;7.800;2023-06-14T09:34:42;98995.84;;;27.48;28.42
63554;BME280;49699;48.072;7.800;2023-06-14T09:37:07;99000.56;;;27.53;28.24
63554;BME280;49699;48.072;7.800;2023-06-14T09:39:33;99003.25;;;27.53;28.63
63554;BME280;49699;48.072;7.800;2023-06-14T09:41:58;99006.53;;;27.75;28.21
63554;BME280;49699;48.072;7.800;2023-06-14T09:44:25;99003.78;;;28.01;28.08
63554;BME280;49699;48.072;7.800;2023-06-14T09:46:55;98999.25;;;28.08;27.61
63554;BME280;49699;48.072;7.800;2023-06-14T09:49:21;99003.09;;;28.19;27.50
63554;BME280;49699;48.072;7.800;2023-06-14T09:51:50;99008.66;;;28.17;27.45
63554;BME280;49699;48.072;7.800;2023-06-14T09:54:22;99013.03;;;27.98;28.12
63554;BME280;49699;48.072;7.800;2023-06-14T09:56:48;99001.81;;;27.70;28.50
63554;BME280;49699;48.072;7.800;2023-06-14T09:59:19;99019.69;;;27.43;27.88
63554;BME280;49699;48.072;7.800;2023-06-14T10:01:46;99007.56;;;27.14;27.92
63554;BME280;49699;48.072;7.800;2023-06-14T10:04:15;99006.34;;;27.17;28.06
63554;BME280;49699;48.072;7.800;2023-06-14T10:06:45;98997.28;;;27.24;27.93
63554;BME280;49699;48.072;7.800;2023-06-14T10:09:11;98989.28;;;27.38;27.92
63554;BME280;49699;48.072;7.800;2023-06-14T10:11:37;98994.59;;;27.71;27.74
63554;BME280;49699;48.072;7.800;2023-06-14T10:14:09;98985.47;;;27.98;27.42
63554;BME280;49699;48.072;7.800;2023-06-14T10:16:41;98983.81;;;28.04;27.40
63554;BME280;49699;48.072;7.800;2023-06-14T10:19:18;98984.94;;;28.34;27.39
63554;BME280;49699;48.072;7.800;2023-06-14T10:22:08;98986.69;;;28.53;26.39
63554;BME280;49699;48.072;7.800;2023-06-14T10:24:43;98994.00;;;28.33;26.19
63554;BME280;49699;48.072;7.800;2023-06-14T10:27:09;98975.34;;;28.20;26.46
63554;BME280;49699;48.072;7.800;2023-06-14T10:30:04;98984.13;;;28.33;26.55
63554;BME280;49699;48.072;7.800;2023-06-14T10:32:31;98980.31;;;28.54;26.42
63554;BME280;49699;48.072;7.800;2023-06-14T10:35:04;98975.88;;;28.73;26.23
63554;BME280;49699;48.072;7.800;2023-06-14T10:37:31;98969.47;;;28.81;25.98
63554;BME280;49699;48.072;7.800;2023-06-14T10:39:56;98976.63;;;28.87;26.10
63554;BME280;49699;48.072;7.800;2023-06-14T10:42:28;98970.38;;;28.99;25.71
63554;BME280;49699;48.072;7.800;2023-06-14T10:44:54;98965.94;;;29.12;25.25
63554;BME280;49699;48.072;7.800;2023-06-14T10:47:36;98975.28;;;29.27;25.50
63554;BME280;49699;48.072;7.800;2023-06-14T10:50:07;98965.59;;;29.51;24.89
63554;BME280;49699;48.072;7.800;2023-06-14T10:52:35;98966.91;;;29.42;24.88
63554;BME280;49699;48.072;7.800;2023-06-14T10:57:35;98972.66;;;29.46;25.13
63554;BME280;49699;48.072;7.800;2023-06-14T11:00:03;98963.31;;;29.55;24.29
63554;BME280;49699;48.072;7.800;2023-06-14T11:02:56;98969.13;;;29.20;24.44
63554;BME280;49699;48.072;7.800;2023-06-14T11:05:56;98973.41;;;29.03;24.35
63554;BME280;49699;48.072;7.800;2023-06-14T11:11:12;98978.28;;;29.13;24.63
63554;BME280;49699;48.072;7.800;2023-06-14T11:13:43;98969.66;;;29.35;24.08
63554;BME280;49699;48.072;7.800;2023-06-14T11:16:17;98977.41;;;29.44;23.76
63554;BME280;49699;48.072;7.800;2023-06-14T11:18:44;98967.69;;;29.49;23.83
63554;BME280;49699;48.072;7.800;2023-06-14T11:21:10;98952.50;;;29.61;23.57
63554;BME280;49699;48.072;7.800;2023-06-14T11:23:36;98965.28;;;29.41;23.94
63554;BME280;49699;48.072;7.800;2023-06-14T11:26:02;98963.19;;;29.18;24.00
63554;BME280;49699;48.072;7.800;2023-06-14T11:28:40;98943.97;;;29.21;24.41
63554;BME280;49699;48.072;7.800;2023-06-14T11:31:06;98951.09;;;29.34;24.59
63554;BME280;49699;48.072;7.800;2023-06-14T11:33:32;98940.22;;;29.29;24.93
63554;BME280;49699;48.072;7.800;2023-06-14T11:35:58;98954.56;;;29.16;25.34
63554;BME280;49699;48.072;7.800;2023-06-14T11:38:25;98951.59;;;29.24;25.35
63554;BME280;49699;48.072;7.800;2023-06-14T11:40:50;98944.91;;;29.33;25.18
63554;BME280;49699;48.072;7.800;2023-06-14T11:43:16;98942.81;;;29.60;24.74
63554;BME280;49699;48.072;7.800;2023-06-14T11:45:42;98948.50;;;29.70;24.01
63554;BME280;49699;48.072;7.800;2023-06-14T11:48:07;98946.31;;;29.61;23.68
63554;BME280;49699;48.072;7.800;2023-06-14T11:50:37;98958.00;;;29.66;23.79
63554;BME280;49699;48.072;7.800;2023-06-14T11:53:03;98950.03;;;29.78;23.68
63554;BME280;49699;48.072;7.800;2023-06-14T11:55:38;98948.94;;;29.86;23.29
63554;BME280;49699;48.072;7.800;2023-06-14T11:58:04;98954.19;;;29.74;23.44
63554;BME280;49699;48.072;7.800;2023-06-14T12:00:30;98941.97;;;29.60;23.64
63554;BME280;49699;48.072;7.800;2023-06-14T12:02:56;98942.81;;;29.60;23.74
63554;BME280;49699;48.072;7.800;2023-06-14T12:05:22;98942.69;;;29.55;23.36
63554;BME280;49699;48.072;7.800;2023-06-14T12:07:49;98941.31;;;29.46;23.60
63554;BME280;49699;48.072;7.800;2023-06-14T12:10:16;98932.69;;;29.62;23.22
63554;BME280;49699;48.072;7.800;2023-06-14T12:12:42;98945.22;;;29.68;23.15
63554;BME280;49699;48.072;7.800;2023-06-14T12:15:09;98931.25;;;29.60;23.02
63554;BME280;49699;48.072;7.800;2023-06-14T12:17:36;98934.97;;;29.59;23.29
63554;BME280;49699;48.072;7.800;2023-06-14T12:20:11;98924.84;;;29.61;23.29
63554;BME280;49699;48.072;7.800;2023-06-14T12:22:37;98931.47;;;29.77;23.43
63554;BME280;49699;48.072;7.800;2023-06-14T12:25:04;98925.00;;;29.84;23.16
63554;BME280;49699;48.072;7.800;2023-06-14T12:27:30;98926.91;;;29.95;23.19
63554;BME280;49699;48.072;7.800;2023-06-14T12:30:05;98926.94;;;30.14;23.02
63554;BME280;49699;48.072;7.800;2023-06-14T12:32:32;98940.50;;;30.19;22.74
63554;BME280;49699;48.072;7.800;2023-06-14T12:34:58;98921.56;;;30.14;23.15
63554;BME280;49699;48.072;7.800;2023-06-14T12:37:23;98933.41;;;30.24;22.79
63554;BME280;49699;48.072;7.800;2023-06-14T12:39:49;98933.91;;;30.33;22.93
63554;BME280;49699;48.072;7.800;2023-06-14T12:42:16;98929.31;;;30.22;22.66
63554;BME280;49699;48.072;7.800;2023-06-14T12:44:41;98934.97;;;30.14;22.31
63554;BME280;49699;48.072;7.800;2023-06-14T12:47:07;98921.50;;;30.02;22.64
63554;BME280;49699;48.072;7.800;2023-06-14T12:49:33;98928.16;;;29.99;22.62
63554;BME280;49699;48.072;7.800;2023-06-14T12:51:58;98933.06;;;30.02;22.97
63554;BME280;49699;48.072;7.800;2023-06-14T12:54:24;98933.06;;;30.02;23.08
63554;BME280;49699;48.072;7.800;2023-06-14T12:56:51;98943.34;;;30.06;23.16
63554;BME280;49699;48.072;7.800;2023-06-14T12:59:17;98937.03;;;30.00;23.23
63554;BME280;49699;48.072;7.800;2023-06-14T13:01:43;98946.75;;;29.76;23.36
63554;BME280;49699;48.072;7.800;2023-06-14T13:04:10;98939.75;;;29.57;23.83
63554;BME280;49699;48.072;7.800;2023-06-14T13:06:36;98944.66;;;29.60;23.89
63554;BME280;49699;48.072;7.800;2023-06-14T13:09:01;98934.75;;;29.60;23.50
63554;BME280;49699;48.072;7.800;2023-06-14T13:11:27;98943.78;;;29.48;23.63